Tinnie, New Mexico
Current Conditions -  °F | °C
As of 8:55 PM on Sunday 21 Dec 2014 (Local Time) from KSRR Reporting Station
Clear Clear  
Wind Chill: 40°   Ceiling: Unl
Heat Index: 48°   Visibility: 10mi
Dew Point: 27°   Wind: 29mph
Humidity: 43%   Direction: 310°NW
Pressure: 29.88"   Gusts: 46mph
Location:  33.37°N, 105.23°W
Report Text: KSRR 220355Z AUTO 31025G40KT 10SM CLR 09/M03 A2988 RMK AO2
Loading
Personal Weather Stations






























Interactive Weather Map New forecast layout! Learn more

10-Day Weather Forecast

Advertisements
Track Severe Weather on mobile